createdAt,value
2017-01-03T00:00:11.993Z,0
2017-01-03T00:01:12.365Z,0
2017-01-03T00:02:12.295Z,0
2017-01-03T00:03:11.861Z,0
2017-01-03T00:04:12.210Z,0
2017-01-03T00:05:12.161Z,0
2017-01-03T00:06:12.118Z,0
2017-01-03T00:07:11.692Z,0
2017-01-03T00:08:12.035Z,0
2017-01-03T00:09:11.601Z,0
2017-01-03T00:10:11.950Z,0
2017-01-03T00:11:11.519Z,0
2017-01-03T00:12:11.866Z,0
2017-01-03T00:13:11.464Z,0
2017-01-03T00:14:11.805Z,0
2017-01-03T00:15:11.734Z,0
2017-01-03T00:16:11.308Z,0
2017-01-03T00:17:11.265Z,0
2017-01-03T00:18:11.233Z,0
2017-01-03T00:19:11.567Z,0
2017-01-03T00:20:11.523Z,0
2017-01-03T00:21:11.483Z,0
2017-01-03T00:22:11.053Z,0
2017-01-03T00:23:11.009Z,0
2017-01-03T00:24:11.360Z,0
2017-01-03T00:25:11.313Z,0
2017-01-03T00:26:10.877Z,0
2017-01-03T00:27:11.229Z,0
2017-01-03T00:28:10.795Z,0
2017-01-03T00:29:10.756Z,0
2017-01-03T00:30:10.711Z,0
2017-01-03T00:31:11.056Z,0
2017-01-03T00:32:10.234Z,0
2017-01-03T00:33:10.581Z,0
2017-01-03T00:34:10.928Z,0
2017-01-03T00:35:10.882Z,0
2017-01-03T00:36:10.837Z,0
2017-01-03T00:37:10.410Z,0
2017-01-03T00:38:10.370Z,0
2017-01-03T00:39:10.328Z,0
2017-01-03T00:40:10.673Z,0
2017-01-03T00:41:10.622Z,0
2017-01-03T00:42:10.194Z,0
2017-01-03T00:43:10.542Z,0
2017-01-03T00:44:10.493Z,0
2017-01-03T00:45:09.685Z,0
2017-01-03T00:46:10.032Z,0
2017-01-03T00:47:10.371Z,0
2017-01-03T00:48:09.553Z,0
2017-01-03T00:49:10.281Z,0
2017-01-03T00:50:09.854Z,0
2017-01-03T00:51:10.195Z,0
2017-01-03T00:52:10.161Z,0
2017-01-03T00:53:10.135Z,0
2017-01-03T00:54:09.301Z,0
2017-01-03T00:55:09.645Z,0
2017-01-03T00:56:09.983Z,0
2017-01-03T00:57:09.942Z,0
2017-01-03T00:58:09.127Z,0
2017-01-03T00:59:09.475Z,0
2017-01-03T01:00:09.424Z,0
2017-01-03T01:01:09.389Z,0
2017-01-03T01:02:09.724Z,0
2017-01-03T01:03:08.911Z,0
2017-01-03T01:04:09.640Z,0
2017-01-03T01:05:09.599Z,0
2017-01-03T01:06:09.559Z,0
2017-01-03T01:07:09.513Z,0
2017-01-03T01:08:09.470Z,0
2017-01-03T01:09:08.661Z,0
2017-01-03T01:10:09.003Z,0
2017-01-03T01:11:09.342Z,0
2017-01-03T01:12:09.301Z,0
2017-01-03T01:13:08.490Z,0
2017-01-03T01:14:08.834Z,0
2017-01-03T01:15:08.398Z,0
2017-01-03T01:16:09.128Z,0
2017-01-03T01:17:09.085Z,0
2017-01-03T01:18:09.051Z,0
2017-01-03T01:19:08.997Z,0
2017-01-03T01:20:08.960Z,0
2017-01-03T01:21:08.913Z,0
2017-01-03T01:22:08.492Z,0
2017-01-03T01:23:08.059Z,0
2017-01-03T01:24:08.783Z,0
2017-01-03T01:25:08.365Z,0
2017-01-03T01:26:08.319Z,0
2017-01-03T01:27:08.660Z,0
2017-01-03T01:28:08.228Z,0
2017-01-03T01:29:08.600Z,0
2017-01-03T01:30:08.531Z,0
2017-01-03T01:31:08.481Z,0
2017-01-03T01:32:08.440Z,0
2017-01-03T01:33:07.642Z,0
2017-01-03T01:34:07.983Z,0
2017-01-03T01:35:07.929Z,0
2017-01-03T01:36:08.272Z,0
2017-01-03T01:37:08.236Z,0
2017-01-03T01:38:08.186Z,0
2017-01-03T01:39:07.761Z,0
2017-01-03T01:40:07.722Z,0
2017-01-03T01:41:07.677Z,0
2017-01-03T01:42:08.011Z,0
2017-01-03T01:43:07.972Z,0
2017-01-03T01:44:07.543Z,0
2017-01-03T01:45:07.883Z,0
2017-01-03T01:46:07.843Z,0
2017-01-03T01:47:07.802Z,0
2017-01-03T01:48:07.757Z,0
2017-01-03T01:49:07.716Z,0
2017-01-03T01:50:07.679Z,0
2017-01-03T01:51:07.625Z,0
2017-01-03T01:52:07.584Z,0
2017-01-03T01:53:07.192Z,0
2017-01-03T01:54:07.121Z,0
2017-01-03T01:55:07.455Z,0
2017-01-03T01:56:07.425Z,0
2017-01-03T01:57:07.366Z,0
2017-01-03T01:58:06.562Z,0
2017-01-03T01:59:06.900Z,0
2017-01-03T02:00:06.476Z,0
2017-01-03T02:01:07.199Z,0
2017-01-03T02:02:06.771Z,0
2017-01-03T02:03:06.732Z,0
2017-01-03T02:04:07.069Z,0
2017-01-03T02:05:07.031Z,0
2017-01-03T02:06:06.983Z,0
2017-01-03T02:07:06.943Z,0
2017-01-03T02:08:06.921Z,0
2017-01-03T02:09:06.471Z,0
2017-01-03T02:10:06.429Z,0
2017-01-03T02:11:06.387Z,0
2017-01-03T02:12:06.739Z,0
2017-01-03T02:13:06.686Z,0
2017-01-03T02:14:06.641Z,0
2017-01-03T02:15:06.602Z,0
2017-01-03T02:16:06.561Z,0
2017-01-03T02:17:06.132Z,0
2017-01-03T02:18:06.090Z,0
2017-01-03T02:19:06.436Z,0
2017-01-03T02:20:06.010Z,0
2017-01-03T02:21:05.963Z,0
2017-01-03T02:22:05.532Z,0
2017-01-03T02:23:06.266Z,0
2017-01-03T02:24:05.838Z,0
2017-01-03T02:25:06.179Z,0
2017-01-03T02:26:05.747Z,0
2017-01-03T02:27:05.318Z,0
2017-01-03T02:28:06.047Z,0
2017-01-03T02:29:05.624Z,0
2017-01-03T02:30:05.965Z,0
2017-01-03T02:31:05.916Z,0
2017-01-03T02:32:05.882Z,0
2017-01-03T02:33:05.831Z,0
2017-01-03T02:34:05.437Z,0
2017-01-03T02:35:05.750Z,0
2017-01-03T02:36:05.320Z,0
2017-01-03T02:37:05.280Z,0
2017-01-03T02:38:05.231Z,0
2017-01-03T02:39:04.805Z,0
2017-01-03T02:40:05.161Z,0
2017-01-03T02:41:05.107Z,0
2017-01-03T02:42:05.452Z,0
2017-01-03T02:43:05.412Z,0
2017-01-03T02:44:05.367Z,0
2017-01-03T02:45:05.322Z,0
2017-01-03T02:46:05.279Z,0
2017-01-03T02:47:05.239Z,0
2017-01-03T02:48:04.817Z,0
2017-01-03T02:49:05.154Z,0
2017-01-03T02:50:05.136Z,0
2017-01-03T02:51:04.684Z,0
2017-01-03T02:52:05.022Z,0
2017-01-03T02:53:04.980Z,0
2017-01-03T02:54:04.552Z,0
2017-01-03T02:55:04.125Z,0
2017-01-03T02:56:04.873Z,0
2017-01-03T02:57:04.808Z,0
2017-01-03T02:58:04.380Z,0
2017-01-03T02:59:04.336Z,0
2017-01-03T03:00:04.681Z,0
2017-01-03T03:01:04.256Z,0
2017-01-03T03:02:04.603Z,0
2017-01-03T03:03:04.163Z,0
2017-01-03T03:04:04.138Z,0
2017-01-03T03:05:04.082Z,0
2017-01-03T03:06:04.431Z,0
2017-01-03T03:07:04.383Z,0
2017-01-03T03:08:04.341Z,0
2017-01-03T03:09:04.295Z,0
2017-01-03T03:10:03.893Z,0
2017-01-03T03:11:03.828Z,0
2017-01-03T03:12:03.778Z,0
2017-01-03T03:13:04.124Z,0
2017-01-03T03:14:04.081Z,0
2017-01-03T03:15:03.650Z,0
2017-01-03T03:16:03.604Z,0
2017-01-03T03:17:03.948Z,0
2017-01-03T03:18:03.522Z,0
2017-01-03T03:19:03.477Z,0
2017-01-03T03:20:03.834Z,0
2017-01-03T03:21:03.391Z,0
2017-01-03T03:22:03.348Z,0
2017-01-03T03:23:02.918Z,0
2017-01-03T03:24:03.677Z,0
2017-01-03T03:25:03.220Z,0
2017-01-03T03:26:03.558Z,0
2017-01-03T03:27:03.521Z,0
2017-01-03T03:28:03.476Z,0
2017-01-03T03:29:02.666Z,0
2017-01-03T03:30:03.392Z,0
2017-01-03T03:31:02.959Z,0
2017-01-03T03:32:03.303Z,0
2017-01-03T03:33:02.488Z,0
2017-01-03T03:34:02.835Z,0
2017-01-03T03:35:02.406Z,0
2017-01-03T03:36:02.752Z,0
2017-01-03T03:37:03.088Z,0
2017-01-03T03:38:03.051Z,0
2017-01-03T03:39:03.002Z,0
2017-01-03T03:40:02.572Z,0
2017-01-03T03:41:02.920Z,0
2017-01-03T03:42:02.879Z,0
2017-01-03T03:43:02.832Z,0
2017-01-03T03:44:02.406Z,0
2017-01-03T03:45:02.736Z,0
2017-01-03T03:46:02.717Z,0
2017-01-03T03:47:02.268Z,0
2017-01-03T03:48:02.227Z,0
2017-01-03T03:49:02.206Z,0
2017-01-03T03:50:02.139Z,0
2017-01-03T03:51:02.105Z,0
2017-01-03T03:52:02.455Z,0
2017-01-03T03:53:02.390Z,0
2017-01-03T03:54:01.588Z,0
2017-01-03T03:55:01.925Z,0
2017-01-03T03:56:02.267Z,0
2017-01-03T03:57:01.836Z,0
2017-01-03T03:58:01.836Z,0
2017-01-03T03:59:02.145Z,0
2017-01-03T04:00:02.098Z,0
2017-01-03T04:01:02.050Z,0
2017-01-03T04:02:02.010Z,0
2017-01-03T04:03:01.964Z,0
2017-01-03T04:04:01.543Z,0
2017-01-03T04:05:01.885Z,0
2017-01-03T04:06:01.450Z,0
2017-01-03T04:07:01.407Z,0
2017-01-03T04:08:01.746Z,0
2017-01-03T04:09:01.702Z,0
2017-01-03T04:10:01.684Z,0
2017-01-03T04:11:01.618Z,0
2017-01-03T04:12:01.580Z,0
2017-01-03T04:13:00.764Z,0
2017-01-03T04:14:01.484Z,0
2017-01-03T04:15:01.448Z,0
2017-01-03T04:16:01.016Z,0
2017-01-03T04:17:00.985Z,0
2017-01-03T04:18:01.316Z,0
2017-01-03T04:19:01.274Z,0
2017-01-03T04:20:00.844Z,0
2017-01-03T04:21:00.827Z,0
2017-01-03T04:22:01.141Z,0
2017-01-03T04:23:01.097Z,0
2017-01-03T04:24:00.670Z,0
2017-01-03T04:25:01.028Z,0
2017-01-03T04:26:00.198Z,0
2017-01-03T04:27:00.184Z,0
2017-01-03T04:28:00.112Z,0
2017-01-03T04:29:00.476Z,0
2017-01-03T04:30:00.408Z,0
2017-01-03T04:31:00.751Z,0
2017-01-03T04:31:59.935Z,0
2017-01-03T04:33:00.286Z,0
2017-01-03T04:34:00.235Z,0
2017-01-03T04:35:00.193Z,0
2017-01-03T04:35:59.763Z,0
2017-01-03T04:37:00.492Z,0
2017-01-03T04:38:00.061Z,0
2017-01-03T04:39:00.402Z,0
2017-01-03T04:39:59.982Z,0
2017-01-03T04:41:00.319Z,0
2017-01-03T04:42:00.274Z,0
2017-01-03T04:42:59.846Z,0
2017-01-03T04:44:00.186Z,0
2017-01-03T04:44:59.761Z,0
2017-01-03T04:46:00.101Z,0
2017-01-03T04:47:00.056Z,0
2017-01-03T04:48:00.016Z,0
2017-01-03T04:48:59.969Z,0
2017-01-03T04:49:59.535Z,0
2017-01-03T04:50:59.504Z,0
2017-01-03T04:51:59.837Z,0
2017-01-03T04:52:59.422Z,0
2017-01-03T04:53:59.380Z,0
2017-01-03T04:54:58.932Z,0
2017-01-03T04:55:59.277Z,0
2017-01-03T04:56:59.619Z,0
2017-01-03T04:57:59.586Z,0
2017-01-03T04:58:59.152Z,0
2017-01-03T04:59:59.488Z,0
2017-01-03T05:00:59.445Z,0
2017-01-03T05:01:59.399Z,0
2017-01-03T05:02:59.002Z,0
2017-01-03T05:03:58.945Z,0
2017-01-03T05:04:58.887Z,0
2017-01-03T05:05:58.458Z,0
2017-01-03T05:06:58.817Z,0
2017-01-03T05:07:58.759Z,0
2017-01-03T05:08:58.739Z,0
2017-01-03T05:09:59.071Z,0
2017-01-03T05:10:58.646Z,0
2017-01-03T05:11:58.579Z,0
2017-01-03T05:12:58.916Z,0
2017-01-03T05:13:58.495Z,0
2017-01-03T05:14:58.449Z,0
2017-01-03T05:15:58.014Z,0
2017-01-03T05:16:58.360Z,0
2017-01-03T05:17:58.712Z,0
2017-01-03T05:18:57.889Z,0
2017-01-03T05:19:58.230Z,0
2017-01-03T05:20:58.574Z,0
2017-01-03T05:21:58.141Z,0
2017-01-03T05:22:58.480Z,0
2017-01-03T05:23:58.438Z,0
2017-01-03T05:24:58.393Z,0
2017-01-03T05:25:58.355Z,0
2017-01-03T05:26:57.923Z,0
2017-01-03T05:27:58.257Z,0
2017-01-03T05:28:57.831Z,0
2017-01-03T05:29:58.175Z,0
2017-01-03T05:30:57.745Z,0
2017-01-03T05:31:58.088Z,0
2017-01-03T05:32:57.661Z,0
2017-01-03T05:33:57.999Z,0
2017-01-03T05:34:57.567Z,0
2017-01-03T05:35:57.550Z,0
2017-01-03T05:36:57.866Z,0
2017-01-03T05:37:57.433Z,0
2017-01-03T05:38:57.774Z,0
2017-01-03T05:39:57.740Z,0
2017-01-03T05:40:57.690Z,0
2017-01-03T05:41:57.654Z,0
2017-01-03T05:42:57.609Z,0
2017-01-03T05:43:57.178Z,0
2017-01-03T05:44:57.128Z,0
2017-01-03T05:45:57.081Z,0
2017-01-03T05:46:57.430Z,0
2017-01-03T05:47:56.992Z,0
2017-01-03T05:48:57.339Z,0
2017-01-03T05:49:56.904Z,0
2017-01-03T05:50:56.482Z,0
2017-01-03T05:51:57.203Z,0
2017-01-03T05:52:57.159Z,0
2017-01-03T05:53:57.119Z,0
2017-01-03T05:54:56.696Z,0
2017-01-03T05:55:57.028Z,0
2017-01-03T05:56:56.980Z,0
2017-01-03T05:57:56.947Z,0
2017-01-03T05:58:56.899Z,0
2017-01-03T05:59:56.475Z,0
2017-01-03T06:00:56.425Z,0
2017-01-03T06:01:56.384Z,0
2017-01-03T06:02:56.718Z,0
2017-01-03T06:03:56.292Z,0
2017-01-03T06:04:56.272Z,0
2017-01-03T06:05:56.203Z,0
2017-01-03T06:06:56.582Z,0
2017-01-03T06:07:55.730Z,0
2017-01-03T06:08:56.452Z,0
2017-01-03T06:09:56.028Z,0
2017-01-03T06:10:55.828Z,0
2017-01-03T06:11:55.405Z,0
2017-01-03T06:12:55.354Z,0
2017-01-03T06:13:55.695Z,0
2017-01-03T06:14:55.655Z,0
2017-01-03T06:15:55.228Z,0
2017-01-03T06:16:55.175Z,0
2017-01-03T06:17:55.521Z,0
2017-01-03T06:18:55.475Z,0
2017-01-03T06:19:55.431Z,0
2017-01-03T06:20:55.002Z,0
2017-01-03T06:21:55.346Z,0
2017-01-03T06:22:54.918Z,0
2017-01-03T06:23:54.871Z,0
2017-01-03T06:24:54.440Z,0
2017-01-03T06:25:54.778Z,0
2017-01-03T06:26:54.354Z,0
2017-01-03T06:27:55.080Z,0
2017-01-03T06:28:54.647Z,0
2017-01-03T06:29:54.605Z,0
2017-01-03T06:30:54.942Z,4
2017-01-03T06:31:54.903Z,4
2017-01-03T06:32:54.471Z,4
2017-01-03T06:33:54.808Z,0
2017-01-03T06:34:54.766Z,4
2017-01-03T06:35:54.721Z,4
2017-01-03T06:36:54.680Z,4
2017-01-03T06:37:54.248Z,4
2017-01-03T06:38:54.618Z,4
2017-01-03T06:39:54.545Z,4
2017-01-03T06:40:54.507Z,8
2017-01-03T06:41:54.071Z,12
2017-01-03T06:42:54.027Z,12
2017-01-03T06:43:53.988Z,12
2017-01-03T06:44:54.321Z,16
2017-01-03T06:45:54.278Z,20
2017-01-03T06:46:54.235Z,24
2017-01-03T06:47:53.805Z,24
2017-01-03T06:48:54.144Z,28
2017-01-03T06:49:54.126Z,28
2017-01-03T06:50:53.673Z,32
2017-01-03T06:51:53.625Z,36
2017-01-03T06:52:53.966Z,44
2017-01-03T06:53:53.925Z,48
2017-01-03T06:54:53.108Z,56
2017-01-03T06:55:53.448Z,72
2017-01-03T06:56:53.798Z,76
2017-01-03T06:57:53.748Z,88
2017-01-03T06:58:53.699Z,92
2017-01-03T06:59:53.656Z,108
2017-01-03T07:00:53.228Z,120
2017-01-03T07:01:53.569Z,132
2017-01-03T07:02:53.134Z,148
2017-01-03T07:03:53.479Z,160
2017-01-03T07:04:53.437Z,176
2017-01-03T07:05:53.392Z,200
2017-01-03T07:06:53.369Z,224
2017-01-03T07:07:53.301Z,252
2017-01-03T07:08:53.259Z,280
2017-01-03T07:09:52.827Z,312
2017-01-03T07:10:53.171Z,352
2017-01-03T07:11:53.122Z,392
2017-01-03T07:12:52.691Z,432
2017-01-03T07:13:53.035Z,468
2017-01-03T07:14:52.985Z,504
2017-01-03T07:15:52.584Z,536
2017-01-03T07:16:52.901Z,572
2017-01-03T07:17:52.856Z,612
2017-01-03T07:18:52.813Z,688
2017-01-03T07:19:53.306Z,776
2017-01-03T07:20:53.264Z,868
2017-01-03T07:21:53.217Z,972
2017-01-03T07:22:53.173Z,1100
2017-01-03T07:23:53.133Z,1208
2017-01-03T07:24:52.699Z,1320
2017-01-03T07:25:53.043Z,1408
2017-01-03T07:26:52.606Z,1468
2017-01-03T07:27:52.951Z,1532
2017-01-03T07:28:52.525Z,1600
2017-01-03T07:29:52.482Z,1772
2017-01-03T07:30:52.827Z,1980
2017-01-03T07:31:52.774Z,2148
2017-01-03T07:32:52.741Z,2288
2017-01-03T07:33:52.684Z,2428
2017-01-03T07:34:52.254Z,2592
2017-01-03T07:35:52.207Z,2784
2017-01-03T07:36:52.555Z,2976
2017-01-03T07:37:52.507Z,3148
2017-01-03T07:38:52.463Z,3316
2017-01-03T07:39:52.428Z,3508
2017-01-03T07:40:52.380Z,3688
2017-01-03T07:41:52.340Z,3892
2017-01-03T07:42:51.900Z,4084
2017-01-03T07:43:51.859Z,4316
2017-01-03T07:44:51.433Z,4508
2017-01-03T07:45:52.157Z,4736
2017-01-03T07:46:52.112Z,4900
2017-01-03T07:47:51.691Z,5076
2017-01-03T07:48:52.029Z,5312
2017-01-03T07:49:51.598Z,5640
2017-01-03T07:50:51.553Z,5860
2017-01-03T07:51:51.898Z,6000
2017-01-03T07:52:51.895Z,6276
2017-01-03T07:53:51.435Z,6580
2017-01-03T07:54:51.768Z,6924
2017-01-03T07:55:51.337Z,7156
2017-01-03T07:56:51.307Z,7396
2017-01-03T07:57:51.257Z,7628
2017-01-03T07:58:51.595Z,7920
2017-01-03T07:59:51.558Z,8208
2017-01-03T08:00:51.513Z,7928
2017-01-03T08:01:51.469Z,8476
2017-01-03T08:02:51.426Z,8792
2017-01-03T08:03:51.000Z,9196
2017-01-03T08:04:50.579Z,9468
2017-01-03T08:05:50.915Z,9768
2017-01-03T08:06:51.268Z,10020
2017-01-03T08:07:50.851Z,10116
2017-01-03T08:08:51.180Z,10024
2017-01-03T08:09:51.141Z,9016
2017-01-03T08:10:51.092Z,7836
2017-01-03T08:11:50.667Z,10608
2017-01-03T08:12:51.009Z,10844
2017-01-03T08:13:50.586Z,10472
2017-01-03T08:14:50.931Z,9452
2017-01-03T08:15:50.115Z,10148
2017-01-03T08:16:50.871Z,12068
2017-01-03T08:17:50.425Z,6940
2017-01-03T08:18:50.764Z,5880
2017-01-03T08:19:50.342Z,6176
2017-01-03T08:20:50.302Z,6584
2017-01-03T08:21:50.259Z,14528
2017-01-03T08:22:50.217Z,17216
2017-01-03T08:23:50.567Z,15744
2017-01-03T08:24:50.519Z,14176
2017-01-03T08:25:50.094Z,7856
2017-01-03T08:26:50.055Z,6032
2017-01-03T08:27:50.009Z,5944
2017-01-03T08:28:50.353Z,5928
2017-01-03T08:29:49.956Z,5828
2017-01-03T08:30:50.279Z,5920
2017-01-03T08:31:49.850Z,6072
2017-01-03T08:32:49.806Z,6492
2017-01-03T08:33:50.148Z,7220
2017-01-03T08:34:49.723Z,13440
2017-01-03T08:35:50.066Z,13564
2017-01-03T08:36:50.022Z,13760
2017-01-03T08:37:49.655Z,14752
2017-01-03T08:38:49.940Z,6980
2017-01-03T08:39:49.921Z,6684
2017-01-03T08:40:49.855Z,6632
2017-01-03T08:41:49.828Z,6588
2017-01-03T08:42:49.393Z,6592
2017-01-03T08:43:49.728Z,6592
2017-01-03T08:44:48.918Z,6588
2017-01-03T08:45:49.652Z,6636
2017-01-03T08:46:49.603Z,6688
2017-01-03T08:47:49.564Z,6744
2017-01-03T08:48:49.521Z,6844
2017-01-03T08:49:49.477Z,7016
2017-01-03T08:50:49.433Z,7244
2017-01-03T08:51:49.395Z,7544
2017-01-03T08:52:48.961Z,7896
2017-01-03T08:53:49.311Z,8580
2017-01-03T08:54:48.495Z,9088
2017-01-03T08:55:48.843Z,10084
2017-01-03T08:56:48.792Z,10712
2017-01-03T08:57:49.145Z,18016
2017-01-03T08:58:48.325Z,15608
2017-01-03T08:59:48.671Z,17664
2017-01-03T09:00:48.651Z,20128
2017-01-03T09:01:48.585Z,21440
2017-01-03T09:02:48.924Z,20224
2017-01-03T09:03:48.887Z,27072
2017-01-03T09:04:49.087Z,30784
2017-01-03T09:05:48.817Z,33760
2017-01-03T09:06:48.749Z,34016
2017-01-03T09:07:48.325Z,32480
2017-01-03T09:08:48.671Z,34272
2017-01-03T09:09:48.623Z,36096
2017-01-03T09:10:48.929Z,36288
2017-01-03T09:11:48.556Z,36704
2017-01-03T09:12:48.522Z,36224
2017-01-03T09:13:47.689Z,34880
2017-01-03T09:14:48.035Z,34688
2017-01-03T09:15:48.385Z,33280
2017-01-03T09:16:48.353Z,29216
2017-01-03T09:17:47.915Z,20832
2017-01-03T09:18:48.259Z,26400
2017-01-03T09:19:47.860Z,22592
2017-01-03T09:20:48.205Z,22048
2017-01-03T09:21:48.149Z,26560
2017-01-03T09:22:48.106Z,32352
2017-01-03T09:23:48.084Z,35392
2017-01-03T09:24:48.028Z,38112
2017-01-03T09:25:47.993Z,38752
2017-01-03T09:26:47.571Z,39488
2017-01-03T09:27:47.921Z,39968
2017-01-03T09:28:47.879Z,39520
2017-01-03T09:29:47.471Z,38976
2017-01-03T09:30:47.426Z,38976
2017-01-03T09:31:47.767Z,38272
2017-01-03T09:32:47.349Z,37024
2017-01-03T09:33:47.696Z,35968
2017-01-03T09:34:47.275Z,36288
2017-01-03T09:35:47.625Z,35712
2017-01-03T09:36:47.209Z,34784
2017-01-03T09:37:47.168Z,33984
2017-01-03T09:38:47.518Z,33856
2017-01-03T09:39:47.111Z,34784
2017-01-03T09:40:47.458Z,36064
2017-01-03T09:41:47.030Z,35648
2017-01-03T09:42:47.001Z,36608
2017-01-03T09:43:47.354Z,37856
2017-01-03T09:44:47.315Z,38752
2017-01-03T09:45:47.291Z,38240
2017-01-03T09:46:46.475Z,37472
2017-01-03T09:47:47.214Z,36480
2017-01-03T09:48:47.178Z,37312
2017-01-03T09:49:47.139Z,38752
2017-01-03T09:50:47.663Z,38880
2017-01-03T09:51:46.691Z,40832
2017-01-03T09:52:47.043Z,41664
2017-01-03T09:53:47.010Z,40704
2017-01-03T09:54:46.978Z,41504
2017-01-03T09:55:46.947Z,41952
2017-01-03T09:56:46.918Z,42016
2017-01-03T09:57:46.497Z,41664
2017-01-03T09:58:46.849Z,41440
2017-01-03T09:59:46.823Z,42112
2017-01-03T10:00:46.782Z,42496
2017-01-03T10:01:46.386Z,41440
2017-01-03T10:02:46.721Z,41504
2017-01-03T10:03:46.693Z,40608
2017-01-03T10:04:46.665Z,37568
2017-01-03T10:05:46.243Z,37248
2017-01-03T10:06:46.211Z,37408
2017-01-03T10:07:46.558Z,37024
2017-01-03T10:08:46.534Z,31264
2017-01-03T10:09:46.500Z,24576
2017-01-03T10:10:46.470Z,23872
2017-01-03T10:11:45.664Z,23712
2017-01-03T10:12:46.404Z,23744
2017-01-03T10:13:46.381Z,23744
2017-01-03T10:14:45.961Z,23552
2017-01-03T10:15:45.926Z,23520
2017-01-03T10:16:45.897Z,23424
2017-01-03T10:17:45.509Z,23360
2017-01-03T10:18:46.221Z,23328
2017-01-03T10:19:46.187Z,23296
2017-01-03T10:20:45.383Z,23328
2017-01-03T10:21:46.137Z,23392
2017-01-03T10:22:46.087Z,23328
2017-01-03T10:23:46.063Z,23264
2017-01-03T10:24:45.646Z,23232
2017-01-03T10:25:46.228Z,23040
2017-01-03T10:26:45.971Z,22848
2017-01-03T10:27:46.336Z,22688
2017-01-03T10:28:45.912Z,22496
2017-01-03T10:29:45.116Z,22432
2017-01-03T10:30:45.848Z,22432
2017-01-03T10:31:45.426Z,22528
2017-01-03T10:32:45.401Z,22752
2017-01-03T10:33:44.979Z,23072
2017-01-03T10:34:45.356Z,23296
2017-01-03T10:35:45.303Z,23424
2017-01-03T10:36:45.295Z,23456
2017-01-03T10:37:45.632Z,23456
2017-01-03T10:38:45.592Z,23840
2017-01-03T10:39:45.176Z,24256
2017-01-03T10:40:45.540Z,24320
2017-01-03T10:41:45.119Z,24288
2017-01-03T10:42:45.476Z,24384
2017-01-03T10:43:45.443Z,24448
2017-01-03T10:44:45.025Z,24192
2017-01-03T10:45:45.378Z,24256
2017-01-03T10:46:45.353Z,24512
2017-01-03T10:47:45.328Z,25728
2017-01-03T10:48:45.285Z,31040
2017-01-03T10:49:44.870Z,35808
2017-01-03T10:50:45.227Z,36384
2017-01-03T10:51:44.812Z,32672
2017-01-03T10:52:45.169Z,33120
2017-01-03T10:53:45.136Z,32416
2017-01-03T10:54:44.716Z,28480
2017-01-03T10:55:45.069Z,26144
2017-01-03T10:56:44.653Z,19808
2017-01-03T10:57:45.192Z,17440
2017-01-03T10:58:44.974Z,16216
2017-01-03T10:59:44.945Z,15292
2017-01-03T11:00:44.985Z,14188
2017-01-03T11:01:44.501Z,13288
2017-01-03T11:02:44.846Z,12840
2017-01-03T11:03:44.818Z,12824
2017-01-03T11:04:44.784Z,13092
2017-01-03T11:05:44.753Z,13500
2017-01-03T11:06:44.335Z,14004
2017-01-03T11:07:44.694Z,14580
2017-01-03T11:08:44.656Z,15272
2017-01-03T11:09:44.236Z,16572
2017-01-03T11:10:44.582Z,18144
2017-01-03T11:11:44.551Z,19264
2017-01-03T11:12:44.135Z,21600
2017-01-03T11:13:44.091Z,21888
2017-01-03T11:14:44.446Z,26624
2017-01-03T11:15:44.413Z,24960
2017-01-03T11:16:44.382Z,25088
2017-01-03T11:17:43.952Z,24416
2017-01-03T11:18:43.919Z,24512
2017-01-03T11:19:44.275Z,23232
2017-01-03T11:20:43.853Z,23488
2017-01-03T11:21:44.197Z,24384
2017-01-03T11:22:44.703Z,24608
2017-01-03T11:23:44.594Z,24320
2017-01-03T11:24:44.102Z,23136
2017-01-03T11:25:43.673Z,21856
2017-01-03T11:26:44.185Z,20512
2017-01-03T11:27:43.989Z,19616
2017-01-03T11:28:43.566Z,18912
2017-01-03T11:29:44.561Z,18464
2017-01-03T11:30:43.880Z,18752
2017-01-03T11:31:43.852Z,19328
2017-01-03T11:32:43.427Z,18912
2017-01-03T11:33:43.398Z,17920
2017-01-03T11:34:43.359Z,17344
2017-01-03T11:35:43.320Z,16956
2017-01-03T11:36:43.672Z,16796
2017-01-03T11:37:43.636Z,16624
2017-01-03T11:38:43.213Z,17568
2017-01-03T11:39:43.754Z,18016
2017-01-03T11:40:42.768Z,16268
2017-01-03T11:41:43.117Z,15448
2017-01-03T11:42:43.074Z,15224
2017-01-03T11:43:43.425Z,14956
2017-01-03T11:44:43.393Z,14728
2017-01-03T11:45:42.599Z,14396
2017-01-03T11:46:42.561Z,13712
2017-01-03T11:47:43.059Z,13144
2017-01-03T11:48:43.244Z,12828
2017-01-03T11:49:43.235Z,12528
2017-01-03T11:50:43.179Z,12336
2017-01-03T11:51:42.758Z,12128
2017-01-03T11:52:42.719Z,11916
2017-01-03T11:53:42.705Z,11756
2017-01-03T11:54:43.039Z,11556
2017-01-03T11:55:42.989Z,11356
2017-01-03T11:56:42.959Z,11160
2017-01-03T11:57:42.923Z,10996
2017-01-03T11:58:42.516Z,10856
2017-01-03T11:59:42.850Z,10708
2017-01-03T12:00:42.820Z,10576
2017-01-03T12:01:42.774Z,10424
2017-01-03T12:02:42.740Z,10292
2017-01-03T12:03:42.317Z,10136
2017-01-03T12:04:42.660Z,9944
2017-01-03T12:05:42.232Z,9804
2017-01-03T12:06:42.589Z,9656
2017-01-03T12:07:41.785Z,9576
2017-01-03T12:08:41.730Z,9512
2017-01-03T12:09:42.082Z,9420
2017-01-03T12:10:42.432Z,9284
2017-01-03T12:11:42.391Z,9144
2017-01-03T12:12:41.578Z,9016
2017-01-03T12:13:41.543Z,8924
2017-01-03T12:14:41.502Z,8816
2017-01-03T12:15:42.241Z,8692
2017-01-03T12:16:42.201Z,8528
2017-01-03T12:17:42.157Z,8292
2017-01-03T12:18:42.118Z,7984
2017-01-03T12:19:41.690Z,7616
2017-01-03T12:20:41.663Z,7340
2017-01-03T12:21:42.043Z,7200
2017-01-03T12:22:41.964Z,7148
2017-01-03T12:23:41.535Z,7128
2017-01-03T12:24:41.492Z,7168
2017-01-03T12:25:41.848Z,7216
2017-01-03T12:26:41.805Z,7212
2017-01-03T12:27:40.994Z,7200
2017-01-03T12:28:41.346Z,7228
2017-01-03T12:29:41.686Z,7212
2017-01-03T12:30:40.870Z,6896
2017-01-03T12:31:41.221Z,6768
2017-01-03T12:32:41.573Z,6968
2017-01-03T12:33:41.569Z,7052
2017-01-03T12:34:41.125Z,7056
2017-01-03T12:35:41.469Z,7012
2017-01-03T12:36:41.443Z,6988
2017-01-03T12:37:40.979Z,6944
2017-01-03T12:38:41.320Z,6964
2017-01-03T12:39:41.278Z,6948
2017-01-03T12:40:40.857Z,6868
2017-01-03T12:41:41.210Z,6812
2017-01-03T12:42:41.160Z,6852
2017-01-03T12:43:41.125Z,6888
2017-01-03T12:44:40.697Z,6828
2017-01-03T12:45:41.039Z,7056
2017-01-03T12:46:40.999Z,7252
2017-01-03T12:47:40.955Z,7360
2017-01-03T12:48:40.533Z,7660
2017-01-03T12:49:40.490Z,8032
2017-01-03T12:50:40.834Z,8712
2017-01-03T12:51:40.415Z,8964
2017-01-03T12:52:40.364Z,8744
2017-01-03T12:53:40.328Z,8220
2017-01-03T12:54:40.671Z,8048
2017-01-03T12:55:40.643Z,8332
2017-01-03T12:56:40.595Z,8672
2017-01-03T12:57:40.166Z,8904
2017-01-03T12:58:40.123Z,8888
2017-01-03T12:59:40.468Z,8992
2017-01-03T13:00:40.466Z,9048
2017-01-03T13:01:40.393Z,9112
2017-01-03T13:02:39.972Z,9304
2017-01-03T13:03:39.918Z,9312
2017-01-03T13:04:39.917Z,8972
2017-01-03T13:05:39.841Z,8496
2017-01-03T13:06:39.796Z,8176
2017-01-03T13:07:40.146Z,8028
2017-01-03T13:08:40.135Z,7972
2017-01-03T13:09:39.677Z,8168
2017-01-03T13:10:40.023Z,8396
2017-01-03T13:11:39.982Z,8208
2017-01-03T13:12:39.936Z,7984
2017-01-03T13:13:39.898Z,7596
2017-01-03T13:14:39.088Z,7380
2017-01-03T13:15:39.818Z,6828
2017-01-03T13:16:39.780Z,6832
2017-01-03T13:17:39.350Z,6932
2017-01-03T13:18:38.955Z,6880
2017-01-03T13:19:38.888Z,6916
2017-01-03T13:20:39.617Z,7192
2017-01-03T13:21:38.810Z,7660
2017-01-03T13:22:39.169Z,8140
2017-01-03T13:23:39.505Z,8200
2017-01-03T13:24:39.072Z,8196
2017-01-03T13:25:39.442Z,8060
2017-01-03T13:26:38.986Z,7672
2017-01-03T13:27:39.337Z,7276
2017-01-03T13:28:39.294Z,6780
2017-01-03T13:29:38.874Z,6232
2017-01-03T13:30:38.823Z,5772
2017-01-03T13:31:39.173Z,5440
2017-01-03T13:32:39.128Z,5372
2017-01-03T13:33:38.697Z,5380
2017-01-03T13:34:39.046Z,5420
2017-01-03T13:35:37.850Z,5224
2017-01-03T13:36:38.592Z,5008
2017-01-03T13:37:38.927Z,5040
2017-01-03T13:38:38.887Z,5200
2017-01-03T13:39:38.846Z,5124
2017-01-03T13:40:38.810Z,4920
2017-01-03T13:41:38.763Z,4808
2017-01-03T13:42:38.723Z,4648
2017-01-03T13:43:38.300Z,4392
2017-01-03T13:44:38.647Z,4236
2017-01-03T13:45:38.598Z,4124
2017-01-03T13:46:38.570Z,4056
2017-01-03T13:47:38.523Z,4060
2017-01-03T13:48:38.472Z,4116
2017-01-03T13:49:38.053Z,4200
2017-01-03T13:50:38.403Z,4164
2017-01-03T13:51:37.965Z,4152
2017-01-03T13:52:37.927Z,4040